Time;durP1;ratioP1;P1;durP2;ratioP2;P2;SDS_P1;SDS_P2;PMS_P1;PMS_P2;Temp;Humidity;BMP_temperature;BMP_pressure;BME280_temperature;BME280_humidity;BME280_pressure;Samples;Min_cycle;Max_cycle;Signal;HPM_P1;HPM_P2
2023/08/11 00:00:04;;;;;;;3.50;1.30;;;;;;;16.92;100.00;64751.34;5055849;28;20205;-53
2023/08/11 00:02:33;;;;;;;2.03;1.60;;;;;;;16.98;100.00;64754.88;5056726;28;20684;-52
2023/08/11 00:04:58;;;;;;;3.22;1.73;;;;;;;16.96;100.00;64750.13;5054522;28;20201;-53
2023/08/11 00:07:24;;;;;;;2.95;1.55;;;;;;;16.98;100.00;64752.88;5057167;28;20240;-53
2023/08/11 00:09:50;;;;;;;1.73;1.63;;;;;;;16.97;100.00;64751.75;5054588;28;20205;-54
2023/08/11 00:12:17;;;;;;;1.50;1.40;;;;;;;17.06;100.00;64758.59;5055514;28;20213;-50
2023/08/11 00:14:42;;;;;;;2.50;1.73;;;;;;;16.97;100.00;64751.75;5057363;28;20209;-53
2023/08/11 00:17:08;;;;;;;1.27;1.20;;;;;;;16.93;100.00;64747.34;5055783;28;20217;-54
2023/08/11 00:19:33;;;;;;;2.30;1.50;;;;;;;16.94;100.00;64748.47;5054705;28;20201;-53
2023/08/11 00:21:59;;;;;;;1.95;1.77;;;;;;;17.09;100.00;64767.00;5055343;28;20255;-52
2023/08/11 00:24:26;;;;;;;2.63;1.50;;;;;;;17.24;100.00;64781.50;5055703;28;20210;-54
2023/08/11 00:26:56;;;;;;;1.52;1.42;;;;;;;17.40;100.00;64796.59;5056161;28;20228;-52
2023/08/11 00:29:22;;;;;;;1.60;1.50;;;;;;;17.45;100.00;64806.66;5054838;28;20683;-53
2023/08/11 00:31:49;;;;;;;1.38;1.27;;;;;;;17.42;100.00;64803.91;5053107;28;20605;-52
2023/08/11 00:34:15;;;;;;;1.52;1.42;;;;;;;17.37;100.00;64795.28;5054091;28;20208;-51
2023/08/11 00:36:42;;;;;;;1.92;1.50;;;;;;;17.36;100.00;64794.19;5056118;28;20214;-52
2023/08/11 00:39:07;;;;;;;1.80;1.35;;;;;;;17.54;100.00;64811.50;5055611;28;20174;-60
2023/08/11 00:41:33;;;;;;;1.40;1.30;;;;;;;17.52;100.00;64814.94;5053954;28;20576;-53
2023/08/11 00:43:58;;;;;;;3.13;1.60;;;;;;;17.41;100.00;64799.69;5055472;28;20204;-53
2023/08/11 00:46:43;;;;;;;1.55;1.40;;;;;;;17.39;100.00;64800.59;5054617;28;20225;-55
2023/08/11 00:49:13;;;;;;;1.98;1.65;;;;;;;17.31;100.00;64791.22;5054574;28;20201;-52
2023/08/11 00:51:42;;;;;;;3.03;1.33;;;;;;;17.27;100.00;64784.81;5055996;28;20225;-54
2023/08/11 00:54:11;;;;;;;2.03;1.40;;;;;;;17.24;100.00;64784.06;5055542;28;20255;-52
2023/08/11 00:56:41;;;;;;;2.42;1.50;;;;;;;17.20;100.00;64776.56;5053805;28;20683;-51
2023/08/11 00:59:09;;;;;;;2.47;1.25;;;;;;;17.16;100.00;64772.16;5052936;28;20221;-52
2023/08/11 01:01:35;;;;;;;3.08;1.50;;;;;;;17.21;100.00;64780.75;5062585;22;20248;-54
2023/08/11 01:04:03;;;;;;;4.35;1.52;;;;;;;17.17;100.00;64775.81;5052694;28;20201;-53
2023/08/11 01:07:09;;;;;;;2.83;1.55;;;;;;;17.21;100.00;64775.13;5054302;28;20299;-55
2023/08/11 01:10:03;;;;;;;1.77;1.33;;;;;;;17.29;100.00;64786.47;5047504;28;20219;-54
2023/08/11 01:12:38;;;;;;;1.50;1.40;;;;;;;17.22;100.00;64781.31;5050951;28;20213;-54
2023/08/11 01:15:25;;;;;;;2.13;1.60;;;;;;;17.14;100.00;64772.50;5050500;28;20205;-55
2023/08/11 01:17:53;;;;;;;2.35;1.70;;;;;;;17.16;100.00;64772.16;5050310;28;20711;-55
2023/08/11 01:20:20;;;;;;;1.70;1.17;;;;;;;17.18;100.00;64774.34;5050397;28;20335;-54
2023/08/11 01:22:53;;;;;;;2.92;1.50;;;;;;;17.16;100.00;64774.69;5050652;28;20236;-54
2023/08/11 01:25:20;;;;;;;1.52;1.35;;;;;;;17.19;100.00;64775.47;5050479;28;20201;-55
2023/08/11 01:27:56;;;;;;;1.65;1.38;;;;;;;17.21;100.00;64777.66;5050266;28;20704;-56
2023/08/11 01:30:23;;;;;;;2.63;1.67;;;;;;;17.18;100.00;64774.34;5048919;28;20240;-55
2023/08/11 01:32:51;;;;;;;3.17;1.70;;;;;;;17.17;100.00;64775.81;5050763;28;20691;-55
2023/08/11 01:35:19;;;;;;;2.17;1.65;;;;;;;17.12;100.00;64765.75;5049273;28;20233;-54
2023/08/11 01:37:50;;;;;;;2.00;1.33;;;;;;;17.13;100.00;64771.41;5051156;28;20246;-54
2023/08/11 01:40:18;;;;;;;2.58;1.73;;;;;;;17.19;100.00;64778.53;5052072;28;20198;-52
2023/08/11 01:42:45;;;;;;;1.60;1.50;;;;;;;17.05;100.00;64760.03;5052320;28;20300;-53
2023/08/11 01:45:14;;;;;;;2.33;1.45;;;;;;;17.10;100.00;64765.53;5054117;28;20205;-53
2023/08/11 01:47:45;;;;;;;3.80;2.08;;;;;;;17.08;100.00;64763.88;5054020;28;20221;-54
2023/08/11 01:50:13;;;;;;;2.35;1.58;;;;;;;17.13;100.00;64769.38;5053901;28;20224;-52
2023/08/11 01:52:45;;;;;;;2.15;1.52;;;;;;;17.07;100.00;64760.22;5053021;28;20237;-52
2023/08/11 01:55:12;;;;;;;1.23;1.13;;;;;;;17.00;100.00;64752.53;5054060;28;20201;-55
2023/08/11 01:57:38;;;;;;;1.48;1.38;;;;;;;17.00;100.00;64757.06;5053915;28;20239;-55
2023/08/11 02:00:13;;;;;;;4.68;1.33;;;;;;;16.99;100.00;64753.97;5053322;28;20214;-60
2023/08/11 02:02:40;;;;;;;1.83;1.50;;;;;;;16.92;100.00;64743.16;5037724;28;20224;-54
2023/08/11 02:05:07;;;;;;;1.50;1.40;;;;;;;16.82;100.00;64737.78;5052560;28;20655;-55
2023/08/11 02:07:36;;;;;;;7.10;1.90;;;;;;;16.85;100.00;64738.53;5052547;28;20205;-54
2023/08/11 02:10:03;;;;;;;4.32;2.28;;;;;;;16.75;100.00;64728.09;5053610;28;20262;-52
2023/08/11 02:12:28;;;;;;;1.58;1.45;;;;;;;16.81;100.00;64736.69;5050944;28;20259;-53
2023/08/11 02:14:54;;;;;;;4.90;1.98;;;;;;;16.96;100.00;64748.13;5050096;28;20205;-52
2023/08/11 02:17:20;;;;;;;3.28;1.70;;;;;;;16.85;100.00;64741.09;5050062;28;20355;-52
2023/08/11 02:19:45;;;;;;;3.05;1.90;;;;;;;16.81;100.00;64736.16;5048096;28;20703;-52
2023/08/11 02:22:11;;;;;;;1.88;1.77;;;;;;;16.85;100.00;64740.56;5049555;28;20237;-52
2023/08/11 02:24:36;;;;;;;2.92;1.88;;;;;;;16.80;100.00;64735.59;5049781;28;20694;-51
2023/08/11 02:27:02;;;;;;;1.70;1.60;;;;;;;16.69;100.00;64720.94;5049087;28;20781;-51
2023/08/11 02:29:28;;;;;;;3.10;1.67;;;;;;;16.65;100.00;64716.53;5049427;28;20206;-52
2023/08/11 02:31:53;;;;;;;1.50;1.33;;;;;;;16.68;100.00;64722.91;5049275;28;20710;-52
2023/08/11 02:34:19;;;;;;;3.08;1.40;;;;;;;16.59;100.00;64707.94;5049533;28;20647;-51
2023/08/11 02:36:45;;;;;;;3.33;1.73;;;;;;;16.67;100.00;64716.72;5064961;28;20206;-52
2023/08/11 02:39:10;;;;;;;1.80;1.70;;;;;;;16.74;100.00;64726.44;5049644;28;20263;-52
2023/08/11 02:41:36;;;;;;;2.30;1.40;;;;;;;16.65;100.00;64719.63;5049441;28;20586;-59
2023/08/11 02:44:02;;;;;;;2.25;2.05;;;;;;;16.73;100.00;64725.34;5049514;28;20216;-55
2023/08/11 02:46:27;;;;;;;2.40;2.00;;;;;;;16.66;100.00;64720.19;5048131;28;20213;-53
2023/08/11 02:48:54;;;;;;;1.92;1.77;;;;;;;16.53;100.00;64706.41;5047971;28;20633;-53
2023/08/11 02:51:19;;;;;;;2.95;1.58;;;;;;;16.48;100.00;64700.88;5049227;28;20782;-52
2023/08/11 02:53:45;;;;;;;2.50;1.83;;;;;;;16.45;100.00;64695.03;5049301;28;20212;-55
2023/08/11 02:56:15;;;;;;;4.53;1.70;;;;;;;16.43;100.00;64692.28;5049809;28;20213;-52
2023/08/11 02:58:42;;;;;;;4.50;2.13;;;;;;;16.49;100.00;64698.91;5052261;28;20201;-52
2023/08/11 03:01:08;;;;;;;2.25;1.80;;;;;;;16.44;100.00;64693.38;5052909;28;20212;-52
2023/08/11 03:03:34;;;;;;;4.57;1.73;;;;;;;16.56;100.00;64706.63;5052195;28;20264;-55
2023/08/11 03:06:00;;;;;;;3.72;1.52;;;;;;;16.72;100.00;64729.88;5052442;28;20213;-52
2023/08/11 03:08:27;;;;;;;2.03;1.50;;;;;;;16.67;100.00;64716.72;5053987;28;20616;-54
2023/08/11 03:10:54;;;;;;;1.88;1.63;;;;;;;16.66;100.00;64720.19;5052858;28;20720;-52
2023/08/11 03:13:19;;;;;;;2.00;1.63;;;;;;;16.62;100.00;64713.75;5056163;28;20205;-52
2023/08/11 03:15:45;;;;;;;2.67;1.65;;;;;;;16.62;100.00;64716.31;5058409;28;20220;-54
2023/08/11 03:18:11;;;;;;;2.90;2.08;;;;;;;16.64;100.00;64717.97;5059603;28;20205;-54
2023/08/11 03:20:37;;;;;;;2.22;1.90;;;;;;;16.63;100.00;64714.88;5057577;28;20217;-52
2023/08/11 03:23:04;;;;;;;2.03;1.83;;;;;;;16.49;100.00;64699.47;5056251;28;20229;-56
2023/08/11 03:25:31;;;;;;;2.67;1.70;;;;;;;16.31;100.00;64679.63;5056706;28;20208;-54
2023/08/11 03:27:57;;;;;;;4.07;1.95;;;;;;;16.20;100.00;64667.50;5057805;28;20223;-52
2023/08/11 03:30:23;;;;;;;4.00;2.10;;;;;;;16.00;100.00;64648.03;5056903;28;20286;-54
2023/08/11 03:32:51;;;;;;;2.05;1.90;;;;;;;16.03;100.00;64650.78;5057693;28;20209;-53
2023/08/11 03:35:17;;;;;;;3.15;1.80;;;;;;;15.88;100.00;64637.38;5056161;28;20274;-52
2023/08/11 03:37:43;;;;;;;1.80;1.70;;;;;;;15.90;100.00;64637.03;5056147;28;20213;-54
2023/08/11 03:40:13;;;;;;;3.38;2.30;;;;;;;15.92;100.00;64637.25;5056206;28;20197;-52
2023/08/11 03:42:42;;;;;;;2.10;1.90;;;;;;;15.95;100.00;64642.53;5051362;28;20217;-53
2023/08/11 03:45:11;;;;;;;2.28;2.00;;;;;;;15.89;100.00;64636.50;5053105;28;20698;-53
2023/08/11 03:47:39;;;;;;;2.33;2.13;;;;;;;15.87;100.00;64633.75;5052435;28;20241;-54
2023/08/11 03:50:06;;;;;;;1.98;1.60;;;;;;;15.90;100.00;64634.50;5050778;28;20246;-53
2023/08/11 03:52:33;;;;;;;3.17;2.08;;;;;;;16.13;100.00;64659.25;5051990;28;20290;-53
2023/08/11 03:54:59;;;;;;;1.73;1.63;;;;;;;16.22;100.00;64667.16;5051929;28;20251;-53
2023/08/11 03:57:25;;;;;;;2.05;1.85;;;;;;;16.41;100.00;64693.19;5053130;28;20597;-54
2023/08/11 03:59:51;;;;;;;4.15;2.38;;;;;;;16.50;100.00;64700.56;5051207;28;20238;-54
2023/08/11 04:02:17;;;;;;;2.75;2.00;;;;;;;16.60;100.00;64711.56;5051165;28;20286;-53
2023/08/11 04:04:44;;;;;;;4.22;2.30;;;;;;;16.74;100.00;64724.44;5052466;28;20213;-51
2023/08/11 04:07:10;;;;;;;5.10;2.28;;;;;;;16.63;100.00;64714.88;5052677;28;20235;-51
2023/08/11 04:09:39;;;;;;;4.97;3.17;;;;;;;16.67;100.00;64719.28;5051718;28;20213;-52
2023/08/11 04:12:06;;;;;;;7.80;4.85;;;;;;;16.72;100.00;64729.88;5050611;28;20582;-53
2023/08/11 04:14:32;;;;;;;13.18;7.35;;;;;;;16.82;100.00;64737.78;5067437;28;20232;-53
2023/08/11 04:16:58;;;;;;;11.07;5.65;;;;;;;17.11;100.00;64766.66;5050386;28;20206;-53
2023/08/11 04:19:23;;;;;;;6.60;4.22;;;;;;;16.84;100.00;64739.44;5051887;28;20212;-55
2023/08/11 04:21:49;;;;;;;9.55;5.30;;;;;;;17.00;100.00;64754.53;5051843;28;20217;-53
2023/08/11 04:24:15;;;;;;;7.20;3.78;;;;;;;17.05;100.00;64760.03;5050885;28;20216;-55
2023/08/11 04:26:41;;;;;;;7.13;4.78;;;;;;;17.14;100.00;64769.94;5050263;28;20641;-56
2023/08/11 04:29:07;;;;;;;8.45;3.85;;;;;;;16.92;100.00;64745.72;5052124;28;20265;-52
2023/08/11 04:31:32;;;;;;;5.75;4.78;;;;;;;17.03;100.00;64760.38;5051458;28;20217;-55
2023/08/11 04:33:57;;;;;;;11.32;4.53;;;;;;;16.93;100.00;64747.34;5051405;28;20271;-52
2023/08/11 04:36:23;;;;;;;8.25;4.20;;;;;;;16.86;100.00;64739.09;5051618;28;20304;-52
2023/08/11 04:38:48;;;;;;;6.90;4.20;;;;;;;16.75;100.00;64727.53;5051829;28;20209;-56
2023/08/11 04:41:15;;;;;;;5.70;3.60;;;;;;;16.57;100.00;64708.28;5051849;28;20282;-55
2023/08/11 04:43:41;;;;;;;6.10;3.67;;;;;;;16.47;100.00;64694.69;5049801;28;20267;-54
2023/08/11 04:46:07;;;;;;;6.50;3.65;;;;;;;16.28;100.00;64673.78;5050268;28;20213;-52
2023/08/11 04:48:32;;;;;;;5.78;3.67;;;;;;;16.28;100.00;64675.78;5051550;28;20201;-51
2023/08/11 04:51:04;;;;;;;6.18;4.20;;;;;;;16.29;100.00;64674.88;5051270;28;20585;-53
2023/08/11 04:53:30;;;;;;;6.88;3.67;;;;;;;16.21;100.00;64665.53;5049805;28;20407;-53
2023/08/11 04:55:55;;;;;;;6.13;3.50;;;;;;;16.13;100.00;64659.81;5051709;28;20213;-55
2023/08/11 04:58:21;;;;;;;4.07;3.08;;;;;;;16.13;100.00;64659.25;5051700;28;20181;-59
2023/08/11 05:00:47;;;;;;;9.88;3.17;;;;;;;16.17;100.00;64666.75;5051599;28;20262;-53
2023/08/11 05:03:12;;;;;;;5.90;3.85;;;;;;;16.02;100.00;64647.16;5051685;28;20209;-56
2023/08/11 05:05:38;;;;;;;4.82;3.10;;;;;;;16.02;100.00;64650.25;5051813;28;20588;-53
2023/08/11 05:08:04;;;;;;;4.38;3.17;;;;;;;16.26;100.00;64674.13;5050606;28;20224;-52
2023/08/11 05:10:30;;;;;;;5.72;2.95;;;;;;;16.26;100.00;64676.66;5051093;28;20221;-52
2023/08/11 05:12:55;;;;;;;5.28;3.22;;;;;;;16.06;100.00;64654.09;5049175;28;20209;-52
2023/08/11 05:15:22;;;;;;;6.07;3.20;;;;;;;16.23;100.00;64667.72;5050831;28;20663;-51
2023/08/11 05:17:48;;;;;;;4.97;3.20;;;;;;;16.36;100.00;64685.13;5050793;28;20205;-55
2023/08/11 05:20:15;;;;;;;4.03;3.40;;;;;;;16.27;100.00;64677.75;5051743;28;20209;-54
2023/08/11 05:22:40;;;;;;;4.30;3.20;;;;;;;16.59;100.00;64712.47;5051344;28;20263;-52
2023/08/11 05:25:12;;;;;;;24.63;11.27;;;;;;;16.94;100.00;64748.47;5051365;28;20209;-55
2023/08/11 05:27:38;;;;;;;7.97;5.32;;;;;;;18.03;100.00;64870.59;5050669;28;20213;-54
2023/08/11 05:30:07;;;;;;;4.97;3.30;;;;;;;18.25;100.00;64892.31;5051101;28;20236;-53
2023/08/11 05:32:33;;;;;;;4.55;3.35;;;;;;;18.28;100.00;64893.06;5051240;28;20580;-53
2023/08/11 05:34:59;;;;;;;4.18;2.97;;;;;;;18.60;100.00;64929.84;5050568;28;20213;-55
2023/08/11 05:37:25;;;;;;;4.53;3.47;;;;;;;18.54;100.00;64925.78;5050953;28;20205;-54
2023/08/11 05:39:53;;;;;;;4.50;3.40;;;;;;;18.51;100.00;64919.91;5051020;28;20297;-53
2023/08/11 05:42:21;;;;;;;3.97;3.10;;;;;;;18.46;100.00;64912.41;5067182;28;20664;-57
2023/08/11 05:44:48;;;;;;;5.95;3.50;;;;;;;18.73;100.00;64944.16;5050023;28;20732;-54
2023/08/11 05:47:13;;;;;;;3.97;3.22;;;;;;;18.67;100.00;64938.09;5051244;28;20220;-57
2023/08/11 05:49:39;;;;;;;4.88;3.33;;;;;;;19.09;100.00;64981.34;5049338;28;20202;-56
2023/08/11 05:52:05;;;;;;;7.43;3.58;;;;;;;19.41;100.00;65019.25;5050168;28;20259;-57
2023/08/11 05:54:30;;;;;;;6.20;3.65;;;;;;;19.99;98.99;65083.31;5049353;28;20602;-57
2023/08/11 05:56:57;;;;;;;9.98;3.50;;;;;;;20.10;94.49;65092.34;5049902;28;20214;-55
2023/08/11 05:59:23;;;;;;;5.38;3.15;;;;;;;19.69;93.93;65047.06;5048910;28;20274;-54
2023/08/11 06:01:49;;;;;;;7.00;4.05;;;;;;;19.49;96.60;65027.53;5050298;28;20202;-53
2023/08/11 06:04:15;;;;;;;3.80;3.28;;;;;;;19.15;98.28;64990.50;5051023;28;20220;-60
2023/08/11 06:06:41;;;;;;;4.40;2.90;;;;;;;18.29;100.00;64899.28;5050738;28;20557;-54
2023/08/11 06:09:07;;;;;;;4.75;2.25;;;;;;;17.92;100.00;64855.91;5050442;28;20209;-53
2023/08/11 06:11:34;;;;;;;3.15;2.72;;;;;;;18.89;100.00;64961.81;5048418;28;20223;-53
2023/08/11 06:13:59;;;;;;;4.32;2.92;;;;;;;18.91;100.00;64964.59;5048658;28;20209;-53
2023/08/11 06:16:25;;;;;;;3.25;2.45;;;;;;;18.73;100.00;64944.72;5050247;28;20205;-54
2023/08/11 06:18:51;;;;;;;5.45;3.38;;;;;;;19.08;100.00;64985.34;5049900;28;20291;-53
2023/08/11 06:21:20;;;;;;;4.10;2.67;;;;;;;19.52;100.00;65028.28;5050243;28;20721;-54
2023/08/11 06:23:45;;;;;;;4.57;3.00;;;;;;;19.52;100.00;65030.84;5050333;28;20212;-53
2023/08/11 06:26:11;;;;;;;3.10;2.90;;;;;;;19.40;100.00;65015.03;5050231;28;20232;-54
2023/08/11 06:28:36;;;;;;;3.33;2.65;;;;;;;19.64;100.00;65042.09;5050258;28;20224;-53
2023/08/11 06:31:04;;;;;;;4.78;2.65;;;;;;;19.76;100.00;65057.91;5049778;28;20216;-57
2023/08/11 06:33:30;;;;;;;4.65;2.97;;;;;;;19.78;96.85;65057.00;5048542;28;20254;-55
2023/08/11 06:35:55;;;;;;;4.85;2.55;;;;;;;19.63;95.32;65040.44;5049984;28;20204;-55
2023/08/11 06:38:20;;;;;;;3.05;2.58;;;;;;;19.64;97.07;65042.09;5049096;28;20558;-57
2023/08/11 06:40:47;;;;;;;3.00;2.50;;;;;;;19.89;100.00;65069.69;5065079;28;20209;-55
2023/08/11 06:43:13;;;;;;;4.30;3.08;;;;;;;19.91;100.00;65071.34;5049541;28;20678;-57
2023/08/11 06:45:44;;;;;;;6.30;2.70;;;;;;;20.03;98.58;65084.59;5049889;28;20213;-58
2023/08/11 06:48:10;;;;;;;4.68;2.70;;;;;;;20.05;97.14;65087.38;5050635;28;20201;-55
2023/08/11 06:50:36;;;;;;;4.55;2.88;;;;;;;20.19;93.90;65101.72;5053354;28;20256;-53
2023/08/11 06:53:02;;;;;;;4.55;3.03;;;;;;;20.01;91.69;65082.97;5053300;28;20209;-52
2023/08/11 06:55:28;;;;;;;4.30;2.70;;;;;;;20.28;91.50;65111.69;5053398;28;20194;-55
2023/08/11 06:57:53;;;;;;;4.72;2.60;;;;;;;20.27;90.69;65111.16;5053251;28;20687;-53
2023/08/11 07:00:19;;;;;;;3.30;2.45;;;;;;;20.07;90.76;65089.59;5053354;28;20201;-55
2023/08/11 07:02:45;;;;;;;4.13;2.60;;;;;;;20.27;95.96;65110.59;5052740;28;20275;-55
2023/08/11 07:05:11;;;;;;;3.20;2.33;;;;;;;20.38;93.86;65125.31;5053138;28;20205;-55
2023/08/11 07:07:37;;;;;;;8.35;3.00;;;;;;;20.46;91.72;65137.25;5051195;28;20205;-56
2023/08/11 07:10:03;;;;;;;6.28;3.22;;;;;;;20.53;91.36;65142.44;5051159;28;20293;-55
2023/08/11 07:12:29;;;;;;;5.47;3.42;;;;;;;20.51;89.76;65137.09;5052424;28;20682;-55
2023/08/11 07:14:55;;;;;;;3.63;3.10;;;;;;;20.42;88.99;65129.72;5052444;28;20193;-54
2023/08/11 07:17:20;;;;;;;3.42;2.30;;;;;;;20.45;90.39;65130.47;5052644;28;20213;-55
2023/08/11 07:19:46;;;;;;;3.30;2.70;;;;;;;20.64;91.03;65152.03;5053011;28;20198;-53
2023/08/11 07:22:11;;;;;;;6.80;3.55;;;;;;;20.70;88.66;65161.22;5052307;28;20296;-54
2023/08/11 07:24:37;;;;;;;4.97;2.75;;;;;;;20.79;89.34;65170.59;5052932;28;20628;-54
2023/08/11 07:27:02;;;;;;;6.95;2.53;;;;;;;21.08;87.56;65202.16;5051024;28;20662;-55
2023/08/11 07:29:28;;;;;;;4.63;3.25;;;;;;;21.00;87.21;65190.72;5052582;28;20197;-53
2023/08/11 07:31:56;;;;;;;3.97;2.80;;;;;;;21.14;85.69;65206.22;5052739;28;20304;-52
2023/08/11 07:34:22;;;;;;;6.22;2.67;;;;;;;21.32;84.71;65226.13;5052325;28;20683;-51
2023/08/11 07:36:47;;;;;;;5.88;3.30;;;;;;;21.15;86.10;65210.44;5052567;28;20237;-53
2023/08/11 07:39:13;;;;;;;3.08;2.75;;;;;;;21.27;86.26;65221.13;5052517;28;20232;-54
2023/08/11 07:41:39;;;;;;;5.47;2.90;;;;;;;21.37;83.38;65229.63;5052633;28;20736;-53
2023/08/11 07:44:05;;;;;;;6.38;3.15;;;;;;;21.00;80.40;65190.72;5050968;28;20218;-54
2023/08/11 07:46:32;;;;;;;4.22;2.72;;;;;;;21.03;83.62;65194.06;5051376;28;20202;-53
2023/08/11 07:48:58;;;;;;;6.93;2.80;;;;;;;21.36;83.51;65231.09;5052344;28;20254;-57
2023/08/11 07:51:24;;;;;;;2.60;2.35;;;;;;;21.26;79.55;65222.59;5052343;28;20769;-53
2023/08/11 07:53:49;;;;;;;3.33;3.03;;;;;;;20.78;78.97;65166.94;5052143;28;20197;-53
2023/08/11 07:56:15;;;;;;;2.95;2.30;;;;;;;21.15;79.31;65207.88;5050661;28;20205;-53
2023/08/11 07:58:41;;;;;;;2.72;2.50;;;;;;;21.16;77.38;65211.53;5050762;28;20221;-53
2023/08/11 08:01:10;;;;;;;2.92;2.63;;;;;;;21.34;80.12;65228.88;5050473;28;20218;-53
2023/08/11 08:03:36;;;;;;;3.00;2.50;;;;;;;21.57;72.48;65254.31;5050331;28;20216;-54
2023/08/11 08:06:04;;;;;;;3.83;2.67;;;;;;;21.23;74.22;65219.28;5052354;28;20553;-55
2023/08/11 08:08:31;;;;;;;3.88;2.33;;;;;;;21.08;78.64;65200.13;5051637;28;20383;-53
2023/08/11 08:10:57;;;;;;;5.10;2.90;;;;;;;21.14;81.25;65206.78;5051749;28;20325;-56
2023/08/11 08:13:23;;;;;;;2.65;2.45;;;;;;;21.16;73.57;65208.97;5050413;28;20201;-56
2023/08/11 08:15:49;;;;;;;2.47;2.28;;;;;;;20.96;70.88;65186.84;5051976;28;20209;-55
2023/08/11 08:18:15;;;;;;;3.53;2.15;;;;;;;20.68;71.16;65155.91;5052042;28;20224;-54
2023/08/11 08:20:40;;;;;;;2.90;2.28;;;;;;;20.68;72.91;65158.47;5051876;28;20283;-51
2023/08/11 08:23:07;;;;;;;3.42;2.42;;;;;;;20.61;71.78;65148.72;5050484;28;20212;-55
2023/08/11 08:25:33;;;;;;;3.65;2.67;;;;;;;20.69;72.70;65157.56;5051498;28;20273;-53
2023/08/11 08:27:58;;;;;;;2.38;2.17;;;;;;;20.82;72.88;65171.38;5051246;28;20227;-53
2023/08/11 08:30:26;;;;;;;2.85;2.53;;;;;;;21.04;73.85;65197.72;5050163;28;20225;-52
2023/08/11 08:32:52;;;;;;;3.42;2.60;;;;;;;20.93;72.61;65186.66;5067446;28;20215;-52
2023/08/11 08:35:18;;;;;;;15.77;5.82;;;;;;;21.15;78.09;65209.91;5051892;28;20595;-55
2023/08/11 08:37:43;;;;;;;3.15;2.50;;;;;;;21.44;78.81;65241.94;5051566;28;20244;-54
2023/08/11 08:40:09;;;;;;;3.92;2.88;;;;;;;21.55;71.25;65251.56;5066870;28;20201;-56
2023/08/11 08:42:36;;;;;;;3.83;2.72;;;;;;;21.53;69.19;65249.88;5052061;28;20217;-52
2023/08/11 08:45:03;;;;;;;4.53;2.45;;;;;;;21.36;66.98;65233.09;5050277;28;20206;-52
2023/08/11 08:47:29;;;;;;;3.78;2.65;;;;;;;21.37;68.81;65232.19;5049775;28;20209;-53
2023/08/11 08:49:57;;;;;;;4.00;2.20;;;;;;;21.40;66.37;65234.97;5051954;28;20201;-53
2023/08/11 08:52:24;;;;;;;2.38;2.17;;;;;;;21.39;70.30;65233.88;5051542;28;20216;-54
2023/08/11 08:54:50;;;;;;;3.80;2.72;;;;;;;21.75;73.71;65274.22;5050800;28;20287;-56
2023/08/11 08:57:17;;;;;;;9.30;4.00;;;;;;;21.80;66.10;65279.22;5051685;28;20252;-52
2023/08/11 08:59:42;;;;;;;4.88;2.50;;;;;;;22.00;65.55;65300.81;5051445;28;20267;-57
2023/08/11 09:02:10;;;;;;;15.85;4.68;;;;;;;21.94;68.26;65294.19;5051088;28;20628;-52
2023/08/11 09:04:38;;;;;;;12.30;3.28;;;;;;;22.02;67.08;65301.00;5051392;28;20580;-54
2023/08/11 09:07:03;;;;;;;7.18;3.13;;;;;;;22.16;68.55;65321.63;5049735;28;20243;-54
2023/08/11 09:09:29;;;;;;;5.13;2.33;;;;;;;22.48;67.46;65351.38;5050499;28;20241;-53
2023/08/11 09:11:55;;;;;;;5.22;2.85;;;;;;;22.47;64.31;65353.41;5049283;28;20335;-54
2023/08/11 09:14:21;;;;;;;11.70;3.25;;;;;;;22.14;63.88;65316.31;5050853;28;20589;-54
2023/08/11 09:16:49;;;;;;;5.88;2.92;;;;;;;22.26;67.27;65332.16;5050606;28;20201;-54
2023/08/11 09:19:16;;;;;;;11.15;3.85;;;;;;;22.38;65.26;65340.31;5051462;28;20293;-54
2023/08/11 09:21:45;;;;;;;7.60;4.18;;;;;;;22.43;66.45;65348.97;5049351;28;20218;-52
2023/08/11 09:24:13;;;;;;;12.55;6.07;;;;;;;22.44;66.89;65346.97;5051046;28;20225;-54
2023/08/11 09:26:44;;;;;;;31.08;11.13;;;;;;;22.52;66.37;65358.38;5050848;28;20205;-53
2023/08/11 09:29:10;;;;;;;9.27;3.28;;;;;;;22.65;66.33;65375.34;5050470;28;20278;-52
2023/08/11 09:31:36;;;;;;;3.53;2.50;;;;;;;22.82;65.39;65388.50;5050582;28;20209;-52
2023/08/11 09:34:16;;;;;;;4.70;2.40;;;;;;;22.69;66.31;65377.22;5051244;28;20209;-54
2023/08/11 09:36:44;;;;;;;4.13;2.15;;;;;;;22.64;64.46;65371.69;5050539;28;20208;-61
2023/08/11 09:39:13;;;;;;;6.50;3.42;;;;;;;22.51;66.26;65355.25;5050414;28;20209;-60
2023/08/11 09:41:43;;;;;;;5.18;3.90;;;;;;;22.58;67.02;65365.03;5050802;28;20213;-54
2023/08/11 09:44:10;;;;;;;7.75;4.50;;;;;;;22.65;66.38;65375.34;5050254;28;20243;-54
2023/08/11 09:46:39;;;;;;;8.35;3.78;;;;;;;22.81;66.16;65390.50;5051150;28;20259;-53
2023/08/11 09:49:05;;;;;;;4.43;3.47;;;;;;;23.01;67.35;65412.66;5049162;28;20209;-53
2023/08/11 09:51:34;;;;;;;8.95;7.60;;;;;;;23.31;66.95;65443.34;5050672;28;20592;-54
2023/08/11 09:54:05;;;;;;;5.13;3.63;;;;;;;23.53;59.01;65469.19;5050024;28;20229;-55
2023/08/11 09:56:34;;;;;;;6.95;3.70;;;;;;;23.50;61.09;65465.84;5048807;28;20241;-52
2023/08/11 09:59:03;;;;;;;4.78;3.85;;;;;;;23.69;64.28;65484.91;5050470;28;20201;-53
2023/08/11 10:01:31;;;;;;;4.57;3.55;;;;;;;23.77;63.56;65498.91;5050464;28;20219;-54
2023/08/11 10:04:01;;;;;;;10.73;6.32;;;;;;;23.82;64.59;65498.72;5050243;28;20205;-53
2023/08/11 10:06:29;;;;;;;7.50;3.38;;;;;;;23.67;65.74;65484.69;5049874;28;20206;-52
2023/08/11 10:09:00;;;;;;;3.63;3.33;;;;;;;23.93;67.08;65513.50;5050456;28;20206;-52
2023/08/11 10:11:31;;;;;;;4.28;2.58;;;;;;;23.94;60.55;65514.59;5050054;28;20213;-51
2023/08/11 10:14:01;;;;;;;5.43;2.88;;;;;;;23.81;61.82;65500.22;5048455;28;20217;-50
2023/08/11 10:16:29;;;;;;;5.50;3.08;;;;;;;23.59;60.19;65476.38;5048610;28;20221;-51
2023/08/11 10:18:57;;;;;;;2.50;2.30;;;;;;;23.44;58.59;65459.75;5050573;28;20220;-55
2023/08/11 10:21:25;;;;;;;4.20;3.00;;;;;;;23.43;63.76;65458.09;5050158;28;20711;-53
2023/08/11 10:23:52;;;;;;;3.60;2.92;;;;;;;24.07;60.62;65529.63;5051658;28;20614;-52
2023/08/11 10:26:19;;;;;;;3.55;2.10;;;;;;;23.93;60.60;65513.50;5051130;28;20217;-55
2023/08/11 10:28:46;;;;;;;2.53;2.33;;;;;;;23.25;59.95;65436.66;5052153;28;20194;-55
2023/08/11 10:31:11;;;;;;;3.80;2.70;;;;;;;23.20;60.51;65431.13;5053023;28;20729;-55
2023/08/11 10:33:37;;;;;;;4.80;2.40;;;;;;;23.09;59.56;65416.38;5052976;28;20200;-55
2023/08/11 10:36:02;;;;;;;8.38;3.38;;;;;;;22.84;61.23;65393.84;5053311;28;20211;-55
2023/08/11 10:38:30;;;;;;;7.75;6.50;;;;;;;23.00;59.53;65411.56;5053320;28;20768;-55
2023/08/11 10:41:18;;;;;;;2.63;2.42;;;;;;;23.57;58.41;65471.03;5051841;28;20242;-55
2023/08/11 10:43:48;;;;;;;5.22;2.50;;;;;;;23.77;60.70;65495.78;5053480;28;20193;-52
2023/08/11 10:46:18;;;;;;;5.05;3.00;;;;;;;24.00;55.96;65521.81;5053514;28;20599;-54
2023/08/11 10:48:44;;;;;;;6.55;3.70;;;;;;;24.04;61.62;65528.84;5052732;28;20193;-54
2023/08/11 10:51:28;;;;;;;4.22;2.70;;;;;;;24.07;60.80;65529.06;5053751;28;20227;-54
2023/08/11 10:54:09;;;;;;;5.10;3.65;;;;;;;23.88;62.61;65508.53;5052646;28;20213;-54
2023/08/11 10:56:43;;;;;;;2.67;2.00;;;;;;;24.12;56.57;65534.59;5051466;28;20615;-56
2023/08/11 10:59:25;;;;;;;4.82;2.85;;;;;;;24.42;60.54;65567.31;5051938;28;20572;-52
2023/08/11 11:01:52;;;;;;;3.45;2.67;;;;;;;24.43;59.57;65565.84;5053217;28;20306;-55
2023/08/11 11:04:37;;;;;;;2.90;2.50;;;;;;;25.21;54.19;65651.84;5051679;28;20189;-52
2023/08/11 11:07:03;;;;;;;5.25;2.72;;;;;;;25.01;59.08;65629.66;5051251;28;20221;-50
2023/08/11 11:09:29;;;;;;;2.85;2.65;;;;;;;24.90;57.27;65621.13;5052763;28;20281;-53
2023/08/11 11:11:55;;;;;;;4.30;3.65;;;;;;;24.29;57.36;65550.88;5052979;28;20213;-52
2023/08/11 11:14:21;;;;;;;3.10;2.80;;;;;;;23.87;58.67;65510.00;5053268;28;20269;-52
2023/08/11 11:16:47;;;;;;;2.75;2.22;;;;;;;24.08;54.66;65525.00;5052925;28;20288;-52
2023/08/11 11:19:13;;;;;;;2.22;1.95;;;;;;;24.70;52.81;65598.94;5052972;28;20292;-54
2023/08/11 11:21:43;;;;;;;3.15;2.40;;;;;;;24.92;52.43;65622.78;5052309;28;20208;-56
2023/08/11 11:24:09;;;;;;;3.08;2.70;;;;;;;24.97;51.24;65628.88;5052959;28;20197;-55
2023/08/11 11:26:36;;;;;;;5.05;3.08;;;;;;;24.80;55.63;65609.47;5052216;28;20224;-55
2023/08/11 11:29:04;;;;;;;3.25;2.97;;;;;;;24.58;57.56;65585.63;5052523;28;20217;-53